Shishmaref, AK

5:53 AM AKST on February 24, 2017 (GMT -0900)
New Shishmaref | | Change Station
Active Advisory: Winter Storm Watch

Elev 10 ft 66.25 °N, 166.09 °W | Updated 17 minutes ago

Overcast
Overcast
1 °F
Feels Like -14 °F
N
10
Wind Variable Wind from SW

Today
High -- | Low -- °F
--% Chance of Precip.
Yesterday
High -- | Low -- °F
Precip. -- in
Pressure 29.96 in
Visibility 10.0 miles
Clouds Mostly Cloudy 2300 ft
Overcast 5500 ft
Windchill -14 °F
Dew Point -6 °F
Humidity 72%
Rainfall 0.00 in
Snow Depth Not available.
9:34 AM 7:01 PM
Waning Crescent, 5% visible
METAR PASH 241436Z 23009KT 10SM BKN023 OVC055 M17/M21 A2996 RMK AO1 PNO
Pressure 29.96 in
Visibility 10.0 miles
Clouds Mostly Cloudy 2300 ft
Overcast 5500 ft
Windchill -14 °F
Dew Point -6 °F
Humidity 72%
Rainfall 0.00 in
Snow Depth Not available.
9:34 AM 7:01 PM
Waning Crescent, 5% visible
METAR PASH 241436Z 23009KT 10SM BKN023 OVC055 M17/M21 A2996 RMK AO1 PNO

Get Your Daily Forecast Email!

Thanks for signing up!

Be on the lookout for a verification email in your inbox.

You'll start receiving the daily forecast at 8 AM.

×

10-Day Weather Forecast

Almanac

Astronomy

Feb. 24, 2017 Rise Set
Actual Time
Civil Twilight
Nautical Twilight
Astronomical Twilight
Moon
Length of Visible Light
Length of Day
Tomorrow will be .
, % of the Moon is Illuminated

Today's Extremes

State Highs State Lows

Community

WunderPhotos

Upload Photos

1,962,540 photos uploaded!

WunderBlog® & News

Nearby

Air Quality

  Air Quality AQ Index Pollutant
Not available.

Snow Depth

Station Depth Elevation

Earthquake Activity

City Distance Mag. Time & Date
Minimum magnitude displayed is 2.5.

Coastal Water Temperatures

Place Temperature

Stations

Nearby Weather Stations

Station Location Temp. Windchill Dew Point Humidity Wind Precip. Elev Updated Type
                   

Watches & Warnings

Winter Storm Watch
Issued: 4:47 AM AKST Feb. 24, 2017 – National Weather Service

... Winter Storm Watch in effect from Saturday morning through
late Saturday night...

The National Weather Service in Fairbanks has issued a Winter
Storm Watch which is in effect from Saturday morning through late
Saturday night.

* Location... north of Cape Krusenstern

* snow... 6 to 12 inches.

* Winds... southeast winds 20 to 30 mph with gusts to 40 mph.

* Visibility... one half mile or less at times.

* Timing... snow and winds will increase Saturday morning and will
continue through Sunday morning.

* Impacts... travel and outdoor activities will be difficult.


Precautionary/preparedness actions...

A Winter Storm Watch means that there is a potential for one or
more significant winter weather hazards.